sensor_id;sensor_type;location;lat;lon;timestamp;temperature;humidity
6756;DHT22;3415;51.148;7.014;2022-10-16T06:57:02;13.80;1.00
6756;DHT22;3415;51.148;7.014;2022-10-16T06:59:29;13.90;1.00
6756;DHT22;3415;51.148;7.014;2022-10-16T07:01:56;13.90;1.00
6756;DHT22;3415;51.148;7.014;2022-10-16T07:04:23;13.90;1.00
6756;DHT22;3415;51.148;7.014;2022-10-16T07:06:49;14.10;1.00
6756;DHT22;3415;51.148;7.014;2022-10-16T07:09:17;14.10;1.00
6756;DHT22;3415;51.148;7.014;2022-10-16T07:11:43;14.30;1.00
6756;DHT22;3415;51.148;7.014;2022-10-16T07:14:16;14.30;1.00
6756;DHT22;3415;51.148;7.014;2022-10-16T07:16:43;14.30;1.00
6756;DHT22;3415;51.148;7.014;2022-10-16T07:19:10;14.30;1.00
6756;DHT22;3415;51.148;7.014;2022-10-16T07:21:40;14.40;1.00
6756;DHT22;3415;51.148;7.014;2022-10-16T07:24:11;14.60;1.00
6756;DHT22;3415;51.148;7.014;2022-10-16T07:26:39;14.60;1.00
6756;DHT22;3415;51.148;7.014;2022-10-16T07:29:07;14.50;1.00
6756;DHT22;3415;51.148;7.014;2022-10-16T07:31:40;14.50;1.00
6756;DHT22;3415;51.148;7.014;2022-10-16T07:34:07;14.50;1.00
6756;DHT22;3415;51.148;7.014;2022-10-16T07:36:34;14.50;1.00
6756;DHT22;3415;51.148;7.014;2022-10-16T07:39:00;14.50;1.00
6756;DHT22;3415;51.148;7.014;2022-10-16T07:43:55;14.50;1.00
6756;DHT22;3415;51.148;7.014;2022-10-16T07:46:26;14.60;1.00
6756;DHT22;3415;51.148;7.014;2022-10-16T07:48:54;14.60;1.00
6756;DHT22;3415;51.148;7.014;2022-10-16T07:51:24;14.60;1.00
6756;DHT22;3415;51.148;7.014;2022-10-16T07:53:51;14.50;1.00
6756;DHT22;3415;51.148;7.014;2022-10-16T07:56:18;14.40;1.00
6756;DHT22;3415;51.148;7.014;2022-10-16T07:58:46;15.60;1.00
6756;DHT22;3415;51.148;7.014;2022-10-16T08:01:16;15.60;1.00
6756;DHT22;3415;51.148;7.014;2022-10-16T08:03:44;16.30;1.00
6756;DHT22;3415;51.148;7.014;2022-10-16T08:06:12;17.20;1.00
6756;DHT22;3415;51.148;7.014;2022-10-16T08:08:39;17.20;1.00
6756;DHT22;3415;51.148;7.014;2022-10-16T08:11:06;17.50;1.00
6756;DHT22;3415;51.148;7.014;2022-10-16T08:13:33;17.60;1.00
6756;DHT22;3415;51.148;7.014;2022-10-16T08:16:00;17.80;1.00
6756;DHT22;3415;51.148;7.014;2022-10-16T08:18:29;18.10;1.00
6756;DHT22;3415;51.148;7.014;2022-10-16T08:20:56;18.60;1.00
6756;DHT22;3415;51.148;7.014;2022-10-16T08:23:25;19.60;1.00
6756;DHT22;3415;51.148;7.014;2022-10-16T08:25:52;21.00;1.00
6756;DHT22;3415;51.148;7.014;2022-10-16T08:28:20;22.90;1.00
6756;DHT22;3415;51.148;7.014;2022-10-16T08:30:47;23.70;1.00
6756;DHT22;3415;51.148;7.014;2022-10-16T08:33:14;24.00;1.00
6756;DHT22;3415;51.148;7.014;2022-10-16T08:35:40;24.50;1.00
6756;DHT22;3415;51.148;7.014;2022-10-16T08:38:07;25.50;1.00
6756;DHT22;3415;51.148;7.014;2022-10-16T08:40:36;25.10;99.90
6756;DHT22;3415;51.148;7.014;2022-10-16T08:43:26;25.00;99.90
6756;DHT22;3415;51.148;7.014;2022-10-16T08:46:15;24.90;99.90
6756;DHT22;3415;51.148;7.014;2022-10-16T08:48:47;25.00;99.90
6756;DHT22;3415;51.148;7.014;2022-10-16T08:51:20;24.60;99.90
6756;DHT22;3415;51.148;7.014;2022-10-16T08:53:52;24.70;99.90
6756;DHT22;3415;51.148;7.014;2022-10-16T08:56:22;25.10;99.90
6756;DHT22;3415;51.148;7.014;2022-10-16T08:58:49;25.30;99.90
6756;DHT22;3415;51.148;7.014;2022-10-16T09:01:18;26.30;99.90
6756;DHT22;3415;51.148;7.014;2022-10-16T09:04:08;26.30;99.90
6756;DHT22;3415;51.148;7.014;2022-10-16T09:06:45;26.90;99.90
6756;DHT22;3415;51.148;7.014;2022-10-16T09:09:38;27.40;99.90
6756;DHT22;3415;51.148;7.014;2022-10-16T09:12:16;27.50;99.90
6756;DHT22;3415;51.148;7.014;2022-10-16T09:14:54;27.20;99.90
6756;DHT22;3415;51.148;7.014;2022-10-16T09:17:30;28.10;99.90
6756;DHT22;3415;51.148;7.014;2022-10-16T09:22:53;28.00;99.90
6756;DHT22;3415;51.148;7.014;2022-10-16T09:25:25;27.30;99.90
6756;DHT22;3415;51.148;7.014;2022-10-16T09:27:53;27.90;99.90
6756;DHT22;3415;51.148;7.014;2022-10-16T09:30:21;28.10;99.90
6756;DHT22;3415;51.148;7.014;2022-10-16T09:32:51;27.70;99.90
6756;DHT22;3415;51.148;7.014;2022-10-16T09:35:21;28.20;99.90
6756;DHT22;3415;51.148;7.014;2022-10-16T09:37:51;28.30;99.90
6756;DHT22;3415;51.148;7.014;2022-10-16T09:40:26;29.20;99.90
6756;DHT22;3415;51.148;7.014;2022-10-16T09:43:01;29.90;99.90
6756;DHT22;3415;51.148;7.014;2022-10-16T09:45:29;29.90;99.90
6756;DHT22;3415;51.148;7.014;2022-10-16T09:47:56;28.80;99.90
6756;DHT22;3415;51.148;7.014;2022-10-16T09:50:25;28.80;99.90
6756;DHT22;3415;51.148;7.014;2022-10-16T09:53:04;28.30;99.90
6756;DHT22;3415;51.148;7.014;2022-10-16T09:55:31;28.60;99.90
6756;DHT22;3415;51.148;7.014;2022-10-16T09:57:59;29.90;99.90
6756;DHT22;3415;51.148;7.014;2022-10-16T10:00:26;30.00;99.90
6756;DHT22;3415;51.148;7.014;2022-10-16T10:02:54;29.90;99.90
6756;DHT22;3415;51.148;7.014;2022-10-16T10:05:22;30.60;99.90
6756;DHT22;3415;51.148;7.014;2022-10-16T10:07:55;29.30;99.90
6756;DHT22;3415;51.148;7.014;2022-10-16T10:10:24;29.20;99.90
6756;DHT22;3415;51.148;7.014;2022-10-16T10:12:52;28.90;99.90
6756;DHT22;3415;51.148;7.014;2022-10-16T10:15:21;29.20;99.90
6756;DHT22;3415;51.148;7.014;2022-10-16T10:17:50;29.40;99.90
6756;DHT22;3415;51.148;7.014;2022-10-16T10:20:26;27.50;99.90
6756;DHT22;3415;51.148;7.014;2022-10-16T10:22:54;27.50;99.90
6756;DHT22;3415;51.148;7.014;2022-10-16T10:25:35;27.80;99.90
6756;DHT22;3415;51.148;7.014;2022-10-16T10:28:18;27.80;99.90
6756;DHT22;3415;51.148;7.014;2022-10-16T10:30:56;27.30;99.90
6756;DHT22;3415;51.148;7.014;2022-10-16T10:33:34;29.20;99.90
6756;DHT22;3415;51.148;7.014;2022-10-16T10:36:12;27.90;99.90
6756;DHT22;3415;51.148;7.014;2022-10-16T10:38:47;28.40;99.90
6756;DHT22;3415;51.148;7.014;2022-10-16T10:41:50;27.40;99.90
6756;DHT22;3415;51.148;7.014;2022-10-16T10:44:27;27.00;99.90
6756;DHT22;3415;51.148;7.014;2022-10-16T10:47:04;26.40;99.90
6756;DHT22;3415;51.148;7.014;2022-10-16T10:49:44;24.80;99.90
6756;DHT22;3415;51.148;7.014;2022-10-16T10:52:46;24.10;99.90
6756;DHT22;3415;51.148;7.014;2022-10-16T10:55:21;24.80;99.90
6756;DHT22;3415;51.148;7.014;2022-10-16T10:58:05;25.70;99.90
6756;DHT22;3415;51.148;7.014;2022-10-16T11:00:44;26.30;99.90
6756;DHT22;3415;51.148;7.014;2022-10-16T11:03:27;26.30;99.90
6756;DHT22;3415;51.148;7.014;2022-10-16T11:06:00;25.10;99.90
6756;DHT22;3415;51.148;7.014;2022-10-16T11:08:35;24.10;99.90
6756;DHT22;3415;51.148;7.014;2022-10-16T11:11:04;24.00;99.90
6756;DHT22;3415;51.148;7.014;2022-10-16T11:13:35;24.10;99.90
6756;DHT22;3415;51.148;7.014;2022-10-16T11:16:07;25.40;99.90
6756;DHT22;3415;51.148;7.014;2022-10-16T11:18:45;27.30;99.90
6756;DHT22;3415;51.148;7.014;2022-10-16T11:21:14;27.00;99.90
6756;DHT22;3415;51.148;7.014;2022-10-16T11:23:46;25.60;99.90
6756;DHT22;3415;51.148;7.014;2022-10-16T11:26:19;24.80;99.90
6756;DHT22;3415;51.148;7.014;2022-10-16T11:28:49;25.30;99.90
6756;DHT22;3415;51.148;7.014;2022-10-16T11:31:22;25.00;99.90
6756;DHT22;3415;51.148;7.014;2022-10-16T11:33:57;24.30;99.90
6756;DHT22;3415;51.148;7.014;2022-10-16T11:36:33;24.50;99.90
6756;DHT22;3415;51.148;7.014;2022-10-16T11:39:08;24.40;99.90
6756;DHT22;3415;51.148;7.014;2022-10-16T11:41:43;23.50;99.90
6756;DHT22;3415;51.148;7.014;2022-10-16T11:44:23;23.40;99.90
6756;DHT22;3415;51.148;7.014;2022-10-16T11:47:05;23.40;99.90
6756;DHT22;3415;51.148;7.014;2022-10-16T11:49:37;24.30;99.90
6756;DHT22;3415;51.148;7.014;2022-10-16T11:52:12;23.30;99.90
6756;DHT22;3415;51.148;7.014;2022-10-16T11:54:45;23.30;99.90
6756;DHT22;3415;51.148;7.014;2022-10-16T11:57:18;22.10;99.90
6756;DHT22;3415;51.148;7.014;2022-10-16T11:59:51;21.80;99.90
6756;DHT22;3415;51.148;7.014;2022-10-16T12:02:35;21.70;99.90
6756;DHT22;3415;51.148;7.014;2022-10-16T12:05:15;21.60;99.90
6756;DHT22;3415;51.148;7.014;2022-10-16T12:07:51;21.20;99.90
6756;DHT22;3415;51.148;7.014;2022-10-16T12:10:22;21.00;99.90
6756;DHT22;3415;51.148;7.014;2022-10-16T12:12:49;20.70;99.90
6756;DHT22;3415;51.148;7.014;2022-10-16T12:15:22;20.50;99.90
6756;DHT22;3415;51.148;7.014;2022-10-16T12:17:50;20.50;99.90
6756;DHT22;3415;51.148;7.014;2022-10-16T12:20:28;20.50;99.90
6756;DHT22;3415;51.148;7.014;2022-10-16T12:22:59;20.70;99.90
6756;DHT22;3415;51.148;7.014;2022-10-16T12:25:29;21.10;99.90
6756;DHT22;3415;51.148;7.014;2022-10-16T12:28:02;21.20;99.90
6756;DHT22;3415;51.148;7.014;2022-10-16T12:30:31;21.20;99.90
6756;DHT22;3415;51.148;7.014;2022-10-16T12:33:00;21.40;99.90
6756;DHT22;3415;51.148;7.014;2022-10-16T12:35:30;21.00;99.90
6756;DHT22;3415;51.148;7.014;2022-10-16T12:38:15;21.00;99.90
6756;DHT22;3415;51.148;7.014;2022-10-16T12:40:43;21.30;99.90
6756;DHT22;3415;51.148;7.014;2022-10-16T12:43:13;21.20;99.90
6756;DHT22;3415;51.148;7.014;2022-10-16T12:45:59;20.90;99.90
6756;DHT22;3415;51.148;7.014;2022-10-16T12:48:26;20.90;99.90
6756;DHT22;3415;51.148;7.014;2022-10-16T12:50:55;20.70;99.90
6756;DHT22;3415;51.148;7.014;2022-10-16T12:53:24;20.70;99.90
6756;DHT22;3415;51.148;7.014;2022-10-16T12:55:57;20.60;99.90
6756;DHT22;3415;51.148;7.014;2022-10-16T12:58:40;20.50;99.90
6756;DHT22;3415;51.148;7.014;2022-10-16T13:01:22;20.40;99.90
6756;DHT22;3415;51.148;7.014;2022-10-16T13:04:13;20.30;99.90
6756;DHT22;3415;51.148;7.014;2022-10-16T13:06:51;20.50;99.90
6756;DHT22;3415;51.148;7.014;2022-10-16T13:09:33;20.60;99.90
6756;DHT22;3415;51.148;7.014;2022-10-16T13:12:25;21.10;99.90
6756;DHT22;3415;51.148;7.014;2022-10-16T13:15:13;21.20;99.90
6756;DHT22;3415;51.148;7.014;2022-10-16T13:17:52;21.40;99.90
6756;DHT22;3415;51.148;7.014;2022-10-16T13:20:26;21.50;99.90
6756;DHT22;3415;51.148;7.014;2022-10-16T13:23:04;23.50;99.90
6756;DHT22;3415;51.148;7.014;2022-10-16T13:25:42;21.60;99.90
6756;DHT22;3415;51.148;7.014;2022-10-16T13:28:12;21.70;99.90
6756;DHT22;3415;51.148;7.014;2022-10-16T13:30:41;21.60;99.90
6756;DHT22;3415;51.148;7.014;2022-10-16T13:33:14;21.70;99.90
6756;DHT22;3415;51.148;7.014;2022-10-16T13:35:48;21.50;99.90
6756;DHT22;3415;51.148;7.014;2022-10-16T13:38:19;21.30;99.90
6756;DHT22;3415;51.148;7.014;2022-10-16T13:40:54;21.00;99.90
6756;DHT22;3415;51.148;7.014;2022-10-16T13:43:24;20.90;99.90
6756;DHT22;3415;51.148;7.014;2022-10-16T13:45:54;20.90;99.90
6756;DHT22;3415;51.148;7.014;2022-10-16T13:48:21;20.80;99.90
6756;DHT22;3415;51.148;7.014;2022-10-16T13:50:58;20.60;99.90
6756;DHT22;3415;51.148;7.014;2022-10-16T13:53:27;20.60;99.90
6756;DHT22;3415;51.148;7.014;2022-10-16T13:55:54;20.60;99.90
6756;DHT22;3415;51.148;7.014;2022-10-16T13:58:20;20.60;99.90
6756;DHT22;3415;51.148;7.014;2022-10-16T14:00:56;20.60;99.90
6756;DHT22;3415;51.148;7.014;2022-10-16T14:03:24;20.50;99.90
6756;DHT22;3415;51.148;7.014;2022-10-16T14:05:53;20.30;99.90
6756;DHT22;3415;51.148;7.014;2022-10-16T14:08:21;20.00;99.90
6756;DHT22;3415;51.148;7.014;2022-10-16T14:10:52;19.90;99.90
6756;DHT22;3415;51.148;7.014;2022-10-16T14:13:29;19.90;99.90
6756;DHT22;3415;51.148;7.014;2022-10-16T14:15:57;19.70;99.90
6756;DHT22;3415;51.148;7.014;2022-10-16T14:18:27;19.60;99.90
6756;DHT22;3415;51.148;7.014;2022-10-16T14:20:54;19.50;99.90
6756;DHT22;3415;51.148;7.014;2022-10-16T14:23:23;19.50;99.90
6756;DHT22;3415;51.148;7.014;2022-10-16T14:26:05;19.60;99.90
6756;DHT22;3415;51.148;7.014;2022-10-16T14:28:33;19.70;99.90
6756;DHT22;3415;51.148;7.014;2022-10-16T14:31:01;19.60;99.90
6756;DHT22;3415;51.148;7.014;2022-10-16T14:33:33;19.70;99.90
6756;DHT22;3415;51.148;7.014;2022-10-16T14:36:02;19.80;99.90
6756;DHT22;3415;51.148;7.014;2022-10-16T14:38:30;19.80;99.90
6756;DHT22;3415;51.148;7.014;2022-10-16T14:40:59;19.70;99.90
6756;DHT22;3415;51.148;7.014;2022-10-16T14:43:32;19.70;99.90
6756;DHT22;3415;51.148;7.014;2022-10-16T14:46:02;20.90;99.90
6756;DHT22;3415;51.148;7.014;2022-10-16T14:48:30;19.60;99.90
6756;DHT22;3415;51.148;7.014;2022-10-16T14:50:57;19.60;99.90
6756;DHT22;3415;51.148;7.014;2022-10-16T14:53:24;19.60;99.90
6756;DHT22;3415;51.148;7.014;2022-10-16T14:55:50;19.60;99.90
6756;DHT22;3415;51.148;7.014;2022-10-16T14:58:20;19.60;99.90
6756;DHT22;3415;51.148;7.014;2022-10-16T15:00:49;19.60;99.90
6756;DHT22;3415;51.148;7.014;2022-10-16T15:03:16;19.50;99.90
6756;DHT22;3415;51.148;7.014;2022-10-16T15:05:43;19.40;99.90
6756;DHT22;3415;51.148;7.014;2022-10-16T15:08:09;19.40;99.90
6756;DHT22;3415;51.148;7.014;2022-10-16T15:10:40;19.40;99.90
6756;DHT22;3415;51.148;7.014;2022-10-16T15:13:11;19.40;99.90
6756;DHT22;3415;51.148;7.014;2022-10-16T15:15:42;19.30;1.00
6756;DHT22;3415;51.148;7.014;2022-10-16T15:18:09;19.10;1.00
6756;DHT22;3415;51.148;7.014;2022-10-16T15:20:38;19.10;1.00
6756;DHT22;3415;51.148;7.014;2022-10-16T15:23:10;19.00;1.00
6756;DHT22;3415;51.148;7.014;2022-10-16T15:25:42;19.10;1.00
6756;DHT22;3415;51.148;7.014;2022-10-16T15:28:10;19.10;1.00
6756;DHT22;3415;51.148;7.014;2022-10-16T15:30:38;19.00;1.00
6756;DHT22;3415;51.148;7.014;2022-10-16T15:33:12;19.00;1.00
6756;DHT22;3415;51.148;7.014;2022-10-16T15:35:39;18.90;1.00
6756;DHT22;3415;51.148;7.014;2022-10-16T15:38:08;18.90;1.00
6756;DHT22;3415;51.148;7.014;2022-10-16T15:40:36;18.80;1.00
6756;DHT22;3415;51.148;7.014;2022-10-16T15:43:03;18.70;1.00
6756;DHT22;3415;51.148;7.014;2022-10-16T15:45:30;18.70;1.00
6756;DHT22;3415;51.148;7.014;2022-10-16T15:47:58;18.70;1.00
6756;DHT22;3415;51.148;7.014;2022-10-16T15:50:25;18.70;1.00
6756;DHT22;3415;51.148;7.014;2022-10-16T15:52:52;18.60;1.00
6756;DHT22;3415;51.148;7.014;2022-10-16T15:55:19;18.40;1.00
6756;DHT22;3415;51.148;7.014;2022-10-16T15:57:46;18.50;1.00
6756;DHT22;3415;51.148;7.014;2022-10-16T16:00:14;18.40;1.00
6756;DHT22;3415;51.148;7.014;2022-10-16T16:02:42;18.20;1.00
6756;DHT22;3415;51.148;7.014;2022-10-16T16:05:11;18.10;1.00
6756;DHT22;3415;51.148;7.014;2022-10-16T16:07:38;18.10;1.00
6756;DHT22;3415;51.148;7.014;2022-10-16T16:10:08;18.10;1.00
6756;DHT22;3415;51.148;7.014;2022-10-16T16:12:36;18.10;1.00
6756;DHT22;3415;51.148;7.014;2022-10-16T16:15:04;18.10;1.00
6756;DHT22;3415;51.148;7.014;2022-10-16T16:17:31;18.00;1.00
6756;DHT22;3415;51.148;7.014;2022-10-16T16:19:58;17.90;1.00
6756;DHT22;3415;51.148;7.014;2022-10-16T16:22:27;17.90;1.00
6756;DHT22;3415;51.148;7.014;2022-10-16T16:24:53;17.90;1.00
6756;DHT22;3415;51.148;7.014;2022-10-16T16:27:20;17.90;1.00
6756;DHT22;3415;51.148;7.014;2022-10-16T16:32:17;17.70;1.00
6756;DHT22;3415;51.148;7.014;2022-10-16T16:34:44;17.80;1.00
6756;DHT22;3415;51.148;7.014;2022-10-16T16:37:10;17.80;1.00
6756;DHT22;3415;51.148;7.014;2022-10-16T16:39:39;17.80;1.00
6756;DHT22;3415;51.148;7.014;2022-10-16T16:42:05;17.80;1.00
6756;DHT22;3415;51.148;7.014;2022-10-16T16:44:33;17.70;1.00
6756;DHT22;3415;51.148;7.014;2022-10-16T16:47:01;17.60;1.00
6756;DHT22;3415;51.148;7.014;2022-10-16T16:49:28;17.60;1.00
6756;DHT22;3415;51.148;7.014;2022-10-16T16:51:55;17.60;1.00
6756;DHT22;3415;51.148;7.014;2022-10-16T16:54:22;17.60;1.00
6756;DHT22;3415;51.148;7.014;2022-10-16T16:56:50;17.50;1.00
6756;DHT22;3415;51.148;7.014;2022-10-16T16:59:19;17.60;1.00
6756;DHT22;3415;51.148;7.014;2022-10-16T17:01:47;17.50;1.00
6756;DHT22;3415;51.148;7.014;2022-10-16T17:04:14;17.40;1.00
6756;DHT22;3415;51.148;7.014;2022-10-16T17:06:42;17.40;1.00
6756;DHT22;3415;51.148;7.014;2022-10-16T17:09:09;17.40;1.00
6756;DHT22;3415;51.148;7.014;2022-10-16T17:11:39;17.40;1.00
6756;DHT22;3415;51.148;7.014;2022-10-16T17:14:08;17.30;1.00
6756;DHT22;3415;51.148;7.014;2022-10-16T17:16:37;17.40;1.00
6756;DHT22;3415;51.148;7.014;2022-10-16T17:19:06;17.40;1.00
6756;DHT22;3415;51.148;7.014;2022-10-16T17:21:33;17.40;1.00
6756;DHT22;3415;51.148;7.014;2022-10-16T17:24:01;17.30;1.00
6756;DHT22;3415;51.148;7.014;2022-10-16T17:26:28;17.40;1.00
6756;DHT22;3415;51.148;7.014;2022-10-16T17:28:56;17.40;1.00
6756;DHT22;3415;51.148;7.014;2022-10-16T17:31:26;17.30;1.00
6756;DHT22;3415;51.148;7.014;2022-10-16T17:33:54;17.40;1.00
6756;DHT22;3415;51.148;7.014;2022-10-16T17:36:21;17.40;1.00
6756;DHT22;3415;51.148;7.014;2022-10-16T17:38:49;17.30;1.00
6756;DHT22;3415;51.148;7.014;2022-10-16T17:41:20;17.30;1.00
6756;DHT22;3415;51.148;7.014;2022-10-16T17:43:47;17.30;1.00
6756;DHT22;3415;51.148;7.014;2022-10-16T17:46:16;17.30;1.00
6756;DHT22;3415;51.148;7.014;2022-10-16T17:48:46;17.30;1.00
6756;DHT22;3415;51.148;7.014;2022-10-16T17:51:14;17.30;1.00
6756;DHT22;3415;51.148;7.014;2022-10-16T17:53:41;17.20;1.00
6756;DHT22;3415;51.148;7.014;2022-10-16T17:56:11;17.30;1.00
6756;DHT22;3415;51.148;7.014;2022-10-16T17:58:38;17.30;1.00
6756;DHT22;3415;51.148;7.014;2022-10-16T18:01:11;17.40;1.00
6756;DHT22;3415;51.148;7.014;2022-10-16T18:03:38;17.30;1.00
6756;DHT22;3415;51.148;7.014;2022-10-16T18:06:06;17.40;1.00
6756;DHT22;3415;51.148;7.014;2022-10-16T18:08:33;17.20;1.00
6756;DHT22;3415;51.148;7.014;2022-10-16T18:11:02;17.20;1.00
6756;DHT22;3415;51.148;7.014;2022-10-16T18:13:29;17.20;1.00
6756;DHT22;3415;51.148;7.014;2022-10-16T18:16:00;17.20;1.00
6756;DHT22;3415;51.148;7.014;2022-10-16T18:18:27;17.20;1.00
6756;DHT22;3415;51.148;7.014;2022-10-16T18:20:57;17.40;1.00
6756;DHT22;3415;51.148;7.014;2022-10-16T18:23:26;17.00;1.00
6756;DHT22;3415;51.148;7.014;2022-10-16T18:25:54;16.90;1.00
6756;DHT22;3415;51.148;7.014;2022-10-16T18:28:21;16.90;1.00
6756;DHT22;3415;51.148;7.014;2022-10-16T18:30:54;16.90;1.00
6756;DHT22;3415;51.148;7.014;2022-10-16T18:33:21;16.80;1.00
6756;DHT22;3415;51.148;7.014;2022-10-16T18:35:48;16.80;1.00
6756;DHT22;3415;51.148;7.014;2022-10-16T18:38:16;16.80;1.00
6756;DHT22;3415;51.148;7.014;2022-10-16T18:40:44;16.80;1.00
6756;DHT22;3415;51.148;7.014;2022-10-16T18:43:11;16.80;1.00
6756;DHT22;3415;51.148;7.014;2022-10-16T18:45:38;16.70;1.00
6756;DHT22;3415;51.148;7.014;2022-10-16T18:48:05;16.80;1.00
6756;DHT22;3415;51.148;7.014;2022-10-16T18:50:32;16.70;1.00
6756;DHT22;3415;51.148;7.014;2022-10-16T18:52:59;16.70;1.00
6756;DHT22;3415;51.148;7.014;2022-10-16T18:55:26;16.80;1.00
6756;DHT22;3415;51.148;7.014;2022-10-16T18:57:55;16.80;1.00
6756;DHT22;3415;51.148;7.014;2022-10-16T19:00:22;16.80;1.00
6756;DHT22;3415;51.148;7.014;2022-10-16T19:02:49;16.90;1.00
6756;DHT22;3415;51.148;7.014;2022-10-16T19:05:16;16.90;1.00
6756;DHT22;3415;51.148;7.014;2022-10-16T19:07:45;17.10;1.00
6756;DHT22;3415;51.148;7.014;2022-10-16T19:10:12;16.90;1.00
6756;DHT22;3415;51.148;7.014;2022-10-16T19:12:39;16.90;1.00
6756;DHT22;3415;51.148;7.014;2022-10-16T19:15:09;16.90;1.00
6756;DHT22;3415;51.148;7.014;2022-10-16T19:17:36;16.90;1.00
6756;DHT22;3415;51.148;7.014;2022-10-16T19:20:04;16.90;1.00
6756;DHT22;3415;51.148;7.014;2022-10-16T19:22:31;16.80;1.00
6756;DHT22;3415;51.148;7.014;2022-10-16T19:25:17;16.80;1.00
6756;DHT22;3415;51.148;7.014;2022-10-16T19:27:44;16.80;1.00
6756;DHT22;3415;51.148;7.014;2022-10-16T19:30:12;16.80;1.00
6756;DHT22;3415;51.148;7.014;2022-10-16T19:32:39;16.90;1.00
6756;DHT22;3415;51.148;7.014;2022-10-16T19:35:07;16.80;1.00
6756;DHT22;3415;51.148;7.014;2022-10-16T19:37:35;16.80;1.00
6756;DHT22;3415;51.148;7.014;2022-10-16T19:40:02;16.80;1.00
6756;DHT22;3415;51.148;7.014;2022-10-16T19:42:29;16.80;1.00
6756;DHT22;3415;51.148;7.014;2022-10-16T19:44:55;16.80;1.00
6756;DHT22;3415;51.148;7.014;2022-10-16T19:47:24;16.70;1.00
6756;DHT22;3415;51.148;7.014;2022-10-16T19:49:50;16.70;1.00
6756;DHT22;3415;51.148;7.014;2022-10-16T19:52:18;16.60;1.00
6756;DHT22;3415;51.148;7.014;2022-10-16T19:54:46;16.60;1.00
6756;DHT22;3415;51.148;7.014;2022-10-16T19:57:13;16.70;1.00
6756;DHT22;3415;51.148;7.014;2022-10-16T19:59:40;16.60;1.00
6756;DHT22;3415;51.148;7.014;2022-10-16T20:02:08;16.60;1.00
6756;DHT22;3415;51.148;7.014;2022-10-16T20:04:37;16.70;1.00
6756;DHT22;3415;51.148;7.014;2022-10-16T20:07:03;16.60;1.00
6756;DHT22;3415;51.148;7.014;2022-10-16T20:09:32;16.60;1.00
6756;DHT22;3415;51.148;7.014;2022-10-16T20:11:59;16.60;1.00
6756;DHT22;3415;51.148;7.014;2022-10-16T20:14:26;16.50;1.00
6756;DHT22;3415;51.148;7.014;2022-10-16T20:16:53;16.60;1.00
6756;DHT22;3415;51.148;7.014;2022-10-16T20:19:20;16.50;1.00
6756;DHT22;3415;51.148;7.014;2022-10-16T20:21:49;16.50;1.00
6756;DHT22;3415;51.148;7.014;2022-10-16T20:24:16;16.40;1.00
6756;DHT22;3415;51.148;7.014;2022-10-16T20:26:43;16.40;1.00
6756;DHT22;3415;51.148;7.014;2022-10-16T20:29:10;16.40;1.00
6756;DHT22;3415;51.148;7.014;2022-10-16T20:31:37;16.40;1.00
6756;DHT22;3415;51.148;7.014;2022-10-16T20:34:10;16.20;1.00
6756;DHT22;3415;51.148;7.014;2022-10-16T20:36:38;16.20;1.00
6756;DHT22;3415;51.148;7.014;2022-10-16T20:39:09;16.10;1.00
6756;DHT22;3415;51.148;7.014;2022-10-16T20:41:38;16.10;1.00
6756;DHT22;3415;51.148;7.014;2022-10-16T20:44:05;16.10;1.00
6756;DHT22;3415;51.148;7.014;2022-10-16T20:46:32;16.10;1.00
6756;DHT22;3415;51.148;7.014;2022-10-16T20:48:58;16.00;1.00
6756;DHT22;3415;51.148;7.014;2022-10-16T20:51:27;16.20;1.00
6756;DHT22;3415;51.148;7.014;2022-10-16T20:53:55;16.20;1.00
6756;DHT22;3415;51.148;7.014;2022-10-16T20:56:24;16.20;1.00
6756;DHT22;3415;51.148;7.014;2022-10-16T20:58:52;16.10;1.00
6756;DHT22;3415;51.148;7.014;2022-10-16T21:01:20;16.30;1.00
6756;DHT22;3415;51.148;7.014;2022-10-16T21:03:49;16.30;1.00
6756;DHT22;3415;51.148;7.014;2022-10-16T21:06:16;16.30;1.00
6756;DHT22;3415;51.148;7.014;2022-10-16T21:08:43;16.30;1.00
6756;DHT22;3415;51.148;7.014;2022-10-16T21:11:11;16.50;1.00
6756;DHT22;3415;51.148;7.014;2022-10-16T21:13:40;16.30;1.00
6756;DHT22;3415;51.148;7.014;2022-10-16T21:16:08;16.30;1.00
6756;DHT22;3415;51.148;7.014;2022-10-16T21:18:35;16.30;1.00
6756;DHT22;3415;51.148;7.014;2022-10-16T21:21:02;16.40;1.00
6756;DHT22;3415;51.148;7.014;2022-10-16T21:23:30;16.40;1.00
6756;DHT22;3415;51.148;7.014;2022-10-16T21:25:57;16.60;1.00
6756;DHT22;3415;51.148;7.014;2022-10-16T21:28:26;16.40;1.00
6756;DHT22;3415;51.148;7.014;2022-10-16T21:30:54;16.40;1.00
6756;DHT22;3415;51.148;7.014;2022-10-16T21:33:22;16.30;1.00
